createdAt,value
2018-05-12T00:02:14.309Z,26.23
2018-05-12T00:04:43.869Z,28.40
2018-05-12T00:07:13.351Z,26.40
2018-05-12T00:09:42.841Z,28.00
2018-05-12T00:12:12.333Z,27.47
2018-05-12T00:14:41.838Z,28.47
2018-05-12T00:17:11.349Z,27.03
2018-05-12T00:19:40.828Z,26.80
2018-05-12T00:22:10.477Z,29.87
2018-05-12T00:24:40.462Z,28.07
2018-05-12T00:27:08.958Z,26.90
2018-05-12T00:29:37.676Z,27.57
2018-05-12T00:32:06.954Z,28.37
2018-05-12T00:34:34.767Z,32.93
2018-05-12T00:37:03.354Z,30.30
2018-05-12T00:39:31.848Z,28.93
2018-05-12T00:42:00.335Z,27.87
2018-05-12T00:44:28.832Z,28.40
2018-05-12T00:46:57.313Z,28.77
2018-05-12T00:49:25.804Z,25.97
2018-05-12T00:51:54.321Z,26.07
2018-05-12T00:54:23.579Z,32.10
2018-05-12T00:56:52.058Z,29.93
2018-05-12T00:59:20.536Z,30.47
2018-05-12T01:01:49.030Z,31.90
2018-05-12T01:04:17.509Z,29.40
2018-05-12T01:06:45.985Z,32.17
2018-05-12T01:09:14.495Z,28.53
2018-05-12T01:11:42.964Z,27.80
2018-05-12T01:14:13.656Z,26.20
2018-05-12T01:16:42.265Z,29.00
2018-05-12T01:19:10.741Z,27.97
2018-05-12T01:21:39.336Z,26.73
2018-05-12T01:24:08.003Z,30.00
2018-05-12T01:26:36.473Z,25.63
2018-05-12T01:29:04.981Z,28.33
2018-05-12T01:31:33.472Z,25.07
2018-05-12T01:34:01.963Z,27.30
2018-05-12T01:36:30.442Z,28.80
2018-05-12T01:38:58.909Z,27.80
2018-05-12T01:41:27.420Z,26.97
2018-05-12T01:43:55.928Z,29.40
2018-05-12T01:46:24.124Z,28.57
2018-05-12T01:48:53.373Z,29.33
2018-05-12T01:51:21.923Z,30.30
2018-05-12T01:53:50.422Z,29.13
2018-05-12T01:56:18.919Z,27.93
2018-05-12T01:58:47.386Z,28.23
2018-05-12T02:01:16.073Z,30.77
2018-05-12T02:03:44.568Z,26.70
2018-05-12T02:06:13.043Z,26.37
2018-05-12T02:08:41.629Z,27.30
2018-05-12T02:11:10.157Z,27.73
2018-05-12T02:13:38.649Z,25.80
2018-05-12T02:16:07.973Z,27.00
2018-05-12T02:18:36.456Z,27.80
2018-05-12T02:21:04.591Z,31.60
2018-05-12T02:23:33.889Z,28.07
2018-05-12T02:26:02.381Z,25.80
2018-05-12T02:28:31.648Z,26.40
2018-05-12T02:31:00.123Z,26.20
2018-05-12T02:33:28.709Z,26.77
2018-05-12T02:35:56.848Z,27.23
2018-05-12T02:38:25.518Z,27.23
2018-05-12T02:40:54.777Z,28.60
2018-05-12T02:43:23.245Z,27.27
2018-05-12T02:45:51.742Z,28.20
2018-05-12T02:48:20.229Z,31.07
2018-05-12T02:50:48.717Z,29.90
2018-05-12T02:53:17.209Z,26.30
2018-05-12T02:55:45.697Z,30.07
2018-05-12T02:58:14.178Z,30.77
2018-05-12T03:00:42.669Z,30.33
2018-05-12T03:03:11.161Z,33.83
2018-05-12T03:05:40.414Z,30.43
2018-05-12T03:08:09.046Z,31.03
2018-05-12T03:10:38.305Z,30.60
2018-05-12T03:13:06.777Z,33.17
2018-05-12T03:15:35.260Z,31.10
2018-05-12T03:18:03.744Z,31.90
2018-05-12T03:20:32.247Z,29.93
2018-05-12T03:23:00.729Z,34.97
2018-05-12T03:25:29.233Z,30.07
2018-05-12T03:27:57.705Z,32.87
2018-05-12T03:30:26.220Z,33.97
2018-05-12T03:32:54.751Z,29.43
2018-05-12T03:35:23.236Z,32.30
2018-05-12T03:37:51.405Z,28.50
2018-05-12T03:40:19.886Z,29.43
2018-05-12T03:42:48.377Z,30.60
2018-05-12T03:45:16.897Z,27.70
2018-05-12T03:47:46.161Z,31.80
2018-05-12T03:50:14.684Z,29.47
2018-05-12T03:52:43.926Z,30.57
2018-05-12T03:55:12.445Z,30.37
2018-05-12T03:57:40.940Z,31.80
2018-05-12T04:00:09.431Z,29.83
2018-05-12T04:02:37.907Z,30.60
2018-05-12T04:05:17.506Z,32.40
2018-05-12T04:07:57.218Z,28.13
2018-05-12T04:23:52.668Z,33.23
2018-05-12T04:26:21.225Z,30.40
2018-05-12T04:28:49.705Z,33.50
2018-05-12T04:31:18.262Z,34.27
2018-05-12T04:33:46.741Z,35.57
2018-05-12T04:36:15.242Z,33.50
2018-05-12T04:38:44.497Z,32.03
2018-05-12T04:41:12.986Z,31.80
2018-05-12T04:43:41.462Z,29.87
2018-05-12T04:46:09.954Z,32.60
2018-05-12T04:48:38.422Z,31.27
2018-05-12T04:51:06.949Z,32.03
2018-05-12T04:53:36.193Z,32.30
2018-05-12T04:56:04.693Z,33.07
2018-05-12T04:58:33.308Z,32.13
2018-05-12T05:01:01.786Z,34.13
2018-05-12T05:03:30.269Z,37.00
2018-05-12T05:05:58.760Z,34.20
2018-05-12T05:08:28.022Z,39.60
2018-05-12T05:10:56.508Z,31.37
2018-05-12T05:13:25.023Z,31.23
2018-05-12T05:15:55.004Z,31.40
2018-05-12T05:18:23.505Z,36.00
2018-05-12T05:20:51.981Z,36.17
2018-05-12T05:23:20.545Z,43.20
2018-05-12T05:25:49.091Z,37.57
2018-05-12T05:28:17.742Z,41.07
2018-05-12T05:30:46.252Z,44.57
2018-05-12T05:33:15.504Z,38.97
2018-05-12T05:35:44.114Z,43.40
2018-05-12T05:38:12.589Z,46.07
2018-05-12T05:40:41.061Z,42.03
2018-05-12T05:43:09.597Z,42.37
2018-05-12T05:45:39.087Z,49.83
2018-05-12T05:48:08.576Z,46.90
2018-05-12T05:50:38.051Z,46.87
2018-05-12T05:53:07.547Z,46.33
2018-05-12T05:55:37.025Z,44.07
2018-05-12T05:58:06.516Z,46.30
2018-05-12T06:00:35.984Z,43.50
2018-05-12T06:03:05.560Z,43.80
2018-05-12T06:05:35.061Z,44.10
2018-05-12T06:08:04.286Z,44.70
2018-05-12T06:10:33.792Z,46.33
2018-05-12T06:13:03.288Z,47.00
2018-05-12T06:15:32.835Z,49.93
2018-05-12T06:18:02.345Z,44.97
2018-05-12T06:20:32.110Z,50.77
2018-05-12T06:23:01.622Z,44.67
2018-05-12T06:25:31.104Z,43.13
2018-05-12T06:28:00.754Z,40.80
2018-05-12T06:30:30.363Z,40.83
2018-05-12T06:32:59.856Z,41.13
2018-05-12T06:35:29.343Z,43.90
2018-05-12T06:37:58.849Z,42.30
2018-05-12T06:40:28.330Z,42.47
2018-05-12T06:42:57.844Z,43.43
2018-05-12T06:45:27.376Z,40.80
2018-05-12T06:47:56.881Z,42.93
2018-05-12T06:50:26.380Z,41.77
2018-05-12T06:52:56.033Z,42.10
2018-05-12T06:55:24.652Z,41.90
2018-05-12T06:57:53.176Z,42.03
2018-05-12T07:00:21.782Z,40.50
2018-05-12T07:02:50.272Z,39.30
2018-05-12T07:05:18.785Z,40.63
2018-05-12T07:07:47.292Z,40.33
2018-05-12T07:10:16.677Z,40.13
2018-05-12T07:12:45.938Z,39.77
2018-05-12T07:15:14.501Z,40.40
2018-05-12T07:17:42.985Z,39.97
2018-05-12T07:20:11.686Z,39.20
2018-05-12T07:22:40.172Z,38.93
2018-05-12T07:25:08.749Z,40.07
2018-05-12T07:27:37.241Z,42.30
2018-05-12T07:30:05.717Z,45.40
2018-05-12T07:32:34.357Z,41.47
2018-05-12T07:35:03.669Z,40.87
2018-05-12T07:37:33.170Z,45.20
2018-05-12T07:40:02.661Z,43.93
2018-05-12T07:42:32.200Z,40.90
2018-05-12T07:45:01.708Z,38.60
2018-05-12T07:47:31.209Z,39.07
2018-05-12T07:50:00.730Z,39.33
2018-05-12T07:52:30.361Z,39.87
2018-05-12T07:55:00.129Z,39.33
2018-05-12T07:57:29.402Z,38.97
2018-05-12T07:59:57.876Z,39.30
2018-05-12T08:02:26.461Z,38.63
2018-05-12T08:04:54.952Z,35.53
2018-05-12T08:07:23.441Z,37.40
2018-05-12T08:09:52.804Z,37.17
2018-05-12T08:12:21.397Z,35.90
2018-05-12T08:14:49.908Z,36.57
2018-05-12T08:17:18.395Z,37.03
2018-05-12T08:19:46.920Z,34.70
2018-05-12T08:22:15.405Z,34.10
2018-05-12T08:24:43.929Z,34.27
2018-05-12T08:27:12.419Z,31.53
2018-05-12T08:29:40.852Z,33.23
2018-05-12T08:32:09.360Z,35.20
2018-05-12T08:34:37.852Z,30.90
2018-05-12T08:37:07.348Z,32.00
2018-05-12T08:39:36.856Z,34.83
2018-05-12T08:42:06.370Z,29.43
2018-05-12T08:44:35.864Z,31.40
2018-05-12T08:47:05.392Z,27.43
2018-05-12T08:49:34.891Z,26.53
2018-05-12T08:52:04.489Z,29.07
2018-05-12T08:54:34.119Z,25.53
2018-05-12T08:57:03.624Z,22.37
2018-05-12T08:59:33.170Z,21.37
2018-05-12T09:02:02.685Z,22.97
2018-05-12T09:04:32.188Z,21.77
2018-05-12T09:07:01.676Z,25.97
2018-05-12T09:09:31.201Z,29.43
2018-05-12T09:12:00.815Z,25.13
2018-05-12T09:14:30.337Z,19.60
2018-05-12T09:16:59.869Z,18.90
2018-05-12T09:19:29.375Z,19.07
2018-05-12T09:21:58.875Z,18.87
2018-05-12T09:24:28.365Z,19.50
2018-05-12T09:26:57.880Z,17.70
2018-05-12T09:29:27.398Z,18.00
2018-05-12T09:31:57.000Z,14.57
2018-05-12T09:34:26.494Z,15.23
2018-05-12T09:36:55.997Z,9.90
2018-05-12T09:39:25.635Z,18.43
2018-05-12T09:41:55.145Z,16.40
2018-05-12T09:44:24.829Z,16.67
2018-05-12T09:46:54.328Z,9.40
2018-05-12T09:49:23.892Z,13.37
2018-05-12T09:51:53.418Z,9.07
2018-05-12T09:54:22.941Z,14.80
2018-05-12T09:56:52.422Z,14.40
2018-05-12T09:59:21.988Z,12.90
2018-05-12T10:01:51.690Z,7.50
2018-05-12T10:04:21.191Z,8.80
2018-05-12T10:06:50.708Z,10.07
2018-05-12T10:09:20.207Z,9.60
2018-05-12T10:11:49.872Z,8.10
2018-05-12T10:14:19.377Z,5.87
2018-05-12T10:16:49.152Z,7.50
2018-05-12T10:19:18.707Z,8.10
2018-05-12T10:21:48.333Z,9.73
2018-05-12T10:24:17.857Z,14.83
2018-05-12T10:26:47.404Z,9.07
2018-05-12T10:29:16.891Z,12.80
2018-05-12T10:31:46.388Z,11.10
2018-05-12T10:34:15.873Z,10.53
2018-05-12T10:36:45.348Z,13.70
2018-05-12T10:39:14.908Z,11.73
2018-05-12T10:41:44.413Z,11.43
2018-05-12T10:44:13.930Z,14.07
2018-05-12T10:46:43.462Z,13.90
2018-05-12T10:49:12.993Z,12.63
2018-05-12T10:51:42.480Z,16.40
2018-05-12T10:54:12.161Z,13.03
2018-05-12T10:56:41.641Z,13.03
2018-05-12T10:59:11.147Z,15.23
2018-05-12T11:01:41.061Z,13.93
2018-05-12T11:04:11.287Z,16.10
2018-05-12T11:06:40.804Z,14.70
2018-05-12T11:09:10.388Z,16.43
2018-05-12T11:11:39.889Z,15.87
2018-05-12T11:14:09.365Z,17.30
2018-05-12T11:16:38.872Z,17.87
2018-05-12T11:19:08.354Z,12.97
2018-05-12T11:21:37.999Z,14.70
2018-05-12T11:24:07.568Z,15.63
2018-05-12T11:26:37.103Z,13.23
2018-05-12T11:29:06.754Z,12.00
2018-05-12T11:31:36.345Z,14.40
2018-05-12T11:34:05.961Z,12.07
2018-05-12T11:36:35.462Z,12.87
2018-05-12T11:39:04.625Z,13.80
2018-05-12T11:41:34.165Z,11.93
2018-05-12T11:44:03.649Z,9.37
2018-05-12T11:46:33.137Z,10.37
2018-05-12T11:49:02.684Z,9.90
2018-05-12T11:51:32.223Z,9.70
2018-05-12T11:54:01.952Z,11.00
2018-05-12T11:56:31.617Z,8.10
2018-05-12T11:59:01.095Z,9.40
2018-05-12T12:01:30.621Z,8.40
2018-05-12T12:04:00.125Z,7.83
2018-05-12T12:06:29.621Z,6.17
2018-05-12T12:08:59.089Z,6.43
2018-05-12T12:11:28.917Z,6.83
2018-05-12T12:13:58.409Z,9.33
2018-05-12T12:16:27.890Z,6.20
2018-05-12T12:18:57.390Z,7.73
2018-05-12T12:21:26.949Z,7.40
2018-05-12T12:23:56.492Z,8.90
2018-05-12T12:26:26.048Z,7.73
2018-05-12T12:28:55.548Z,6.30
2018-05-12T12:31:25.037Z,7.00
2018-05-12T12:33:54.522Z,7.07
2018-05-12T12:36:24.104Z,6.93
2018-05-12T12:38:53.366Z,7.70
2018-05-12T12:41:22.654Z,7.63
2018-05-12T12:43:52.132Z,6.80
2018-05-12T12:46:21.642Z,6.40
2018-05-12T12:48:51.142Z,6.17
2018-05-12T12:51:20.646Z,6.87
2018-05-12T12:53:50.172Z,6.27
2018-05-12T12:56:19.667Z,6.40
2018-05-12T12:58:49.153Z,6.30
2018-05-12T13:01:18.644Z,5.60
2018-05-12T13:03:48.144Z,5.33
2018-05-12T13:06:17.637Z,6.60
2018-05-12T13:08:47.113Z,5.67
2018-05-12T13:11:16.598Z,6.90
2018-05-12T13:13:46.093Z,5.43
2018-05-12T13:16:15.566Z,4.70
2018-05-12T13:18:45.125Z,5.07
2018-05-12T13:21:14.621Z,5.20
2018-05-12T13:23:44.198Z,4.60
2018-05-12T13:26:13.674Z,4.50
2018-05-12T13:28:43.204Z,5.03
2018-05-12T13:31:12.672Z,4.93
2018-05-12T13:33:42.164Z,4.60
2018-05-12T13:36:11.676Z,4.80
2018-05-12T13:38:41.311Z,4.63
2018-05-12T13:41:10.793Z,5.00
2018-05-12T13:43:40.284Z,5.30
2018-05-12T13:46:09.780Z,5.27
2018-05-12T13:48:39.281Z,4.83
2018-05-12T13:51:08.760Z,5.17
2018-05-12T13:53:38.268Z,5.20
2018-05-12T13:56:07.734Z,4.57
2018-05-12T13:58:37.216Z,4.20
2018-05-12T14:01:06.353Z,5.53
2018-05-12T14:03:35.896Z,5.10
2018-05-12T14:06:05.404Z,4.70
2018-05-12T14:08:34.876Z,4.67
2018-05-12T14:11:04.374Z,5.33
2018-05-12T14:13:33.885Z,4.27
2018-05-12T14:16:03.457Z,4.00
2018-05-12T14:18:33.141Z,5.40
2018-05-12T14:21:02.634Z,4.97
2018-05-12T14:23:32.185Z,3.73
2018-05-12T14:26:02.600Z,3.93
2018-05-12T14:28:32.088Z,4.70
2018-05-12T14:31:01.586Z,4.80
2018-05-12T14:33:31.183Z,4.00
2018-05-12T14:36:00.789Z,4.40
2018-05-12T14:38:30.285Z,4.20
2018-05-12T14:40:59.769Z,4.57
2018-05-12T14:43:29.276Z,4.87
2018-05-12T14:45:58.764Z,3.80
2018-05-12T14:48:28.372Z,3.87
2018-05-12T14:50:57.844Z,4.40
2018-05-12T14:53:27.370Z,4.10
2018-05-12T14:55:56.876Z,5.07
2018-05-12T14:58:26.377Z,4.80
2018-05-12T15:00:55.869Z,4.73
2018-05-12T15:03:25.364Z,5.30
2018-05-12T15:05:54.845Z,4.70
2018-05-12T15:08:24.337Z,4.60
2018-05-12T15:10:54.016Z,4.33
2018-05-12T15:13:23.492Z,3.57
2018-05-12T15:15:53.025Z,3.70
2018-05-12T15:18:23.333Z,3.87
2018-05-12T15:20:52.860Z,3.33
2018-05-12T15:23:22.355Z,4.40
2018-05-12T15:25:51.832Z,3.77
2018-05-12T15:28:21.332Z,3.83
2018-05-12T15:30:50.805Z,3.97
2018-05-12T15:33:20.309Z,4.00
2018-05-12T15:35:49.780Z,4.13
2018-05-12T15:38:19.291Z,4.10
2018-05-12T15:40:48.830Z,4.17
2018-05-12T15:43:18.304Z,6.23
2018-05-12T15:45:47.897Z,4.40
2018-05-12T15:48:17.377Z,4.30
2018-05-12T15:50:46.873Z,4.20
2018-05-12T15:53:16.376Z,5.07
2018-05-12T15:55:45.900Z,4.20
2018-05-12T15:58:15.372Z,4.40
2018-05-12T16:00:44.858Z,4.57
2018-05-12T16:03:14.353Z,4.00
2018-05-12T16:05:44.031Z,4.10
2018-05-12T16:08:13.520Z,5.10
2018-05-12T16:10:43.005Z,3.70
2018-05-12T16:13:12.620Z,4.20
2018-05-12T16:15:42.129Z,4.37
2018-05-12T16:18:11.625Z,4.60
2018-05-12T16:20:41.096Z,4.07
2018-05-12T16:23:10.602Z,4.00
2018-05-12T16:25:40.127Z,4.10
2018-05-12T16:28:09.632Z,4.70
2018-05-12T16:30:39.145Z,3.87
2018-05-12T16:33:08.703Z,5.50
2018-05-12T16:35:38.181Z,5.40
2018-05-12T16:38:07.681Z,4.90
2018-05-12T16:40:37.167Z,5.20
2018-05-12T16:43:06.663Z,4.50
2018-05-12T16:45:36.141Z,4.03
2018-05-12T16:48:05.612Z,4.93
2018-05-12T16:50:35.254Z,3.77
2018-05-12T16:53:04.821Z,3.83
2018-05-12T16:55:34.324Z,4.17
2018-05-12T16:58:03.800Z,4.60
2018-05-12T17:00:33.281Z,4.00
2018-05-12T17:03:02.789Z,4.20
2018-05-12T17:05:32.256Z,4.17
2018-05-12T17:08:01.764Z,4.80
2018-05-12T17:10:31.249Z,3.60
2018-05-12T17:13:00.768Z,3.80
2018-05-12T17:15:30.310Z,4.30
2018-05-12T17:17:59.817Z,4.07
2018-05-12T17:20:29.476Z,4.47
2018-05-12T17:22:58.968Z,4.43
2018-05-12T17:25:28.477Z,3.97
2018-05-12T17:27:57.984Z,4.37
2018-05-12T17:30:27.548Z,5.00
2018-05-12T17:32:57.028Z,4.50
2018-05-12T17:35:26.612Z,4.53
2018-05-12T17:37:56.140Z,4.27
2018-05-12T17:40:25.812Z,4.83
2018-05-12T17:42:55.401Z,7.10
2018-05-12T17:45:24.904Z,4.77
2018-05-12T17:47:54.382Z,4.67
2018-05-12T17:50:23.883Z,6.00
2018-05-12T17:52:53.375Z,4.47
2018-05-12T17:55:22.869Z,4.90
2018-05-12T17:57:52.358Z,5.33
2018-05-12T18:00:21.847Z,4.37
2018-05-12T18:02:51.385Z,4.80
2018-05-12T18:05:20.988Z,4.93
2018-05-12T18:07:50.461Z,4.37
2018-05-12T18:10:19.971Z,4.50
2018-05-12T18:12:49.468Z,5.23
2018-05-12T18:15:18.971Z,5.30
2018-05-12T18:17:48.495Z,6.23
2018-05-12T18:20:18.072Z,4.50
2018-05-12T18:22:47.567Z,4.80
2018-05-12T18:25:17.056Z,4.40
2018-05-12T18:27:46.572Z,5.10
2018-05-12T18:30:16.079Z,5.97
2018-05-12T18:32:45.693Z,5.13
2018-05-12T18:35:15.177Z,5.70
2018-05-12T18:37:44.638Z,4.90
2018-05-12T18:40:14.141Z,5.33
2018-05-12T18:42:43.677Z,6.43
2018-05-12T18:45:13.278Z,6.40
2018-05-12T18:47:42.442Z,6.60
2018-05-12T18:50:11.948Z,5.73
2018-05-12T18:52:41.433Z,6.30
2018-05-12T18:55:10.901Z,5.73
2018-05-12T18:57:40.396Z,6.27
2018-05-12T19:00:09.900Z,5.93
2018-05-12T19:02:39.407Z,6.83
2018-05-12T19:05:08.972Z,11.53
2018-05-12T19:07:38.481Z,9.70
2018-05-12T19:10:07.956Z,7.77
2018-05-12T19:12:37.455Z,9.10
2018-05-12T19:15:06.960Z,8.10
2018-05-12T19:17:36.513Z,10.40
2018-05-12T19:20:05.874Z,23.03
2018-05-12T19:22:35.433Z,14.97
2018-05-12T19:25:04.929Z,12.33
2018-05-12T19:27:34.476Z,10.10
2018-05-12T19:30:03.693Z,9.10
2018-05-12T19:32:33.182Z,6.73
2018-05-12T19:35:02.682Z,7.60
2018-05-12T19:37:32.493Z,8.80
2018-05-12T19:40:02.000Z,7.00
2018-05-12T19:42:31.520Z,13.60
2018-05-12T19:45:01.065Z,49.40
2018-05-12T19:47:30.567Z,72.57
2018-05-12T19:50:00.119Z,14.73
2018-05-12T19:52:29.635Z,15.07
2018-05-12T19:54:59.197Z,13.13
2018-05-12T19:57:28.692Z,14.00
2018-05-12T19:59:58.226Z,10.77
2018-05-12T20:02:27.723Z,7.70
2018-05-12T20:04:57.231Z,67.90
2018-05-12T20:07:26.756Z,32.40
2018-05-12T20:09:56.241Z,7.93
2018-05-12T20:12:25.410Z,8.70
2018-05-12T20:14:54.896Z,8.37
2018-05-12T20:17:24.474Z,13.70
2018-05-12T20:19:53.966Z,11.30
2018-05-12T20:22:23.480Z,13.60
2018-05-12T20:24:52.968Z,9.83
2018-05-12T20:27:22.665Z,10.83
2018-05-12T20:29:52.192Z,7.90
2018-05-12T20:32:21.699Z,9.63
2018-05-12T20:34:52.264Z,8.87
2018-05-12T20:37:21.917Z,14.17
2018-05-12T20:39:51.497Z,8.83
2018-05-12T20:42:20.998Z,10.20
2018-05-12T20:44:50.513Z,9.90
2018-05-12T20:47:20.016Z,9.13
2018-05-12T20:49:49.616Z,18.47
2018-05-12T20:52:19.177Z,28.10
2018-05-12T20:54:48.665Z,18.87
2018-05-12T20:57:18.160Z,12.47
2018-05-12T20:59:47.665Z,10.07
2018-05-12T21:02:17.281Z,10.10
2018-05-12T21:04:46.880Z,11.27
2018-05-12T21:07:16.366Z,13.13
2018-05-12T21:09:45.930Z,13.77
2018-05-12T21:12:15.434Z,15.03
2018-05-12T21:14:44.945Z,14.00
2018-05-12T21:17:14.465Z,20.30
2018-05-12T21:19:43.978Z,21.77
2018-05-12T21:22:13.479Z,23.60
2018-05-12T21:24:42.990Z,15.33
2018-05-12T21:27:12.495Z,17.43
2018-05-12T21:29:41.971Z,15.33
2018-05-12T21:32:11.465Z,12.50
2018-05-12T21:34:41.028Z,8.83
2018-05-12T21:37:10.668Z,10.67
2018-05-12T21:39:40.148Z,7.33
2018-05-12T21:42:09.648Z,46.20
2018-05-12T21:44:39.297Z,8.03
2018-05-12T21:47:08.908Z,6.93
2018-05-12T21:49:38.422Z,6.80
2018-05-12T21:52:07.896Z,5.93
2018-05-12T21:54:37.427Z,6.37
2018-05-12T21:57:06.921Z,6.83
2018-05-12T21:59:36.169Z,6.97
2018-05-12T22:02:05.665Z,7.33
2018-05-12T22:04:35.166Z,5.80
2018-05-12T22:07:04.731Z,5.50
2018-05-12T22:09:34.233Z,5.23
2018-05-12T22:12:03.716Z,5.10
2018-05-12T22:14:33.352Z,9.50
2018-05-12T22:17:02.874Z,6.00
2018-05-12T22:19:32.386Z,6.17
2018-05-12T22:22:01.906Z,4.90
2018-05-12T22:24:31.386Z,5.57
2018-05-12T22:27:00.865Z,6.50
2018-05-12T22:29:30.411Z,5.97
2018-05-12T22:31:59.895Z,6.23
2018-05-12T22:34:29.422Z,6.13
2018-05-12T22:36:58.913Z,6.00
2018-05-12T22:39:28.424Z,5.50
2018-05-12T22:41:57.924Z,12.07
2018-05-12T22:44:27.449Z,229.67
2018-05-12T22:46:56.937Z,17.90
2018-05-12T22:49:26.429Z,6.17
2018-05-12T22:51:55.909Z,6.10
2018-05-12T22:54:25.519Z,5.73
2018-05-12T22:56:55.178Z,5.93
2018-05-12T22:59:24.664Z,6.17
2018-05-12T23:01:54.164Z,5.77
2018-05-12T23:04:23.643Z,7.80
2018-05-12T23:06:53.376Z,5.93
2018-05-12T23:09:22.933Z,7.80
2018-05-12T23:11:52.564Z,9.50
2018-05-12T23:14:22.053Z,8.00
2018-05-12T23:16:51.556Z,8.67
2018-05-12T23:19:21.108Z,8.10
2018-05-12T23:21:50.624Z,7.27
2018-05-12T23:24:20.117Z,7.60
2018-05-12T23:26:49.633Z,6.80
2018-05-12T23:29:19.368Z,7.70
2018-05-12T23:31:48.912Z,7.60
2018-05-12T23:34:18.404Z,6.57
2018-05-12T23:36:47.941Z,8.10
2018-05-12T23:39:17.438Z,7.57
2018-05-12T23:41:46.969Z,7.73
2018-05-12T23:44:16.474Z,8.07
2018-05-12T23:46:45.949Z,9.23
2018-05-12T23:49:15.442Z,9.30
2018-05-12T23:51:44.973Z,28.60
2018-05-12T23:54:14.453Z,41.57
2018-05-12T23:56:43.957Z,8.70
2018-05-12T23:59:13.616Z,8.17
